Aérodrome :
LOGIN :

S'inscrire | Disclaimer

   EN    FR    IT 

 










Légende :    VFR   VFR Marginal   IFR   IFR Intensif   IFR Très Intensif
Visi : 
Plafond : 
>= 8 km
>= 3000ft
5 à 8 km
1000 à 3000 ft
1500m à 5 km
500 à 1000 ft
800 à 1500m
200 à 500 ft
< 800m
< 200 ft
Symboles :   Orages  Brouillard  Fortes neiges  Fortes précipitations  Vent > 20 kt
SIGMETs :   Divers  Orages  Givrage  Turbulence  Onde Orograph.  Cendres Volcan.






- Altitude de l'aérodrome : 364 ft
- Code IATA : FRA


EDDF - Frankfurt Int.

DERNIER METAR :
  • 221250Z 08008KT 9000 OVC010 06/03 Q1008 NOSIG

METARs EXPIRÉS :
  • 221220Z 10008KT 7000 FEW007 OVC010 06/03 Q1008 NOSIG
  • 221150Z 06005KT 7000 FEW005 OVC009 05/03 Q1008 TEMPO BKN012
  • 221120Z 07005KT 040V120 8000 FEW005 BKN009 05/03 Q1008 TEMPO BKN012
  • 221050Z 07005KT 030V100 7000 FEW004 BKN008 05/03 Q1009 TEMPO BKN012
  • 221020Z 07005KT 7000 FEW004 SCT007 BKN011 05/03 Q1009 TEMPO BKN007

TAF TAF EDDF
Valide du 22 à 12h jusqu'au 23 à 18h UTC


221100Z 2212/2318 06008KT 8000 BKN012
PROB30
TEMPO 2212/2214 BKN008
TEMPO 2214/2217 SCT015
TEMPO 2218/2309 2500 BR
PROB30
TEMPO 2220/2307 0500 FG BKN002
BECMG 2307/2311 SCT015



MET'MAP, la Météo Aéronautique d'un coup d'oeil ! - Copyright ORBIFLY Décembre 2007 - Disclaimer

ORBIFLY MET'MAP TEAM :

Programmation & Développement : Alexandra Zaïnal
Conception & Développement : Baudouin d'Aumeries
Co-Programmation & Développement : Marc-Olivier Méhu
Soutien technique & logistique : Manuel Goepfert

Contact : metmap@orbifly.com




SOURCES & CREDITS :

   NOAA